Petersburg, AK

6:14 AM AKDT on July 12, 2014 (GMT -0800)
RAWS KAKE AK US (MKKEA2) Elev 399 ft | 56.97 °N, 133.66 °W | Change Station

Current weather conditions updated 1 hour ago

Rain
Rain
55 °F
Feels Like 55 °F
N
2
Wind Variable Wind from NNE
Gusts 5.0 mph

Today is forecast to be Warmer than yesterday.

Today
High -- | Low -- °F
--% Chance of Precip.
Yesterday
High -- | Low -- °F
Precip. -- in
4:18 AM 9:41 PM
Full, 100% visible
Pressure 30.06 in
Visibility 10.0 miles
Clouds Scattered Clouds 11000 ft
Dew Point 55 °F
Humidity 100%
Rainfall 0.00 in
Snow Depth Not available.
UV 0 out of 12
Pollen Not available.
Air Quality Not available.
Flu Activity Sporadic
METAR PAPG 121355Z 00000KT 10SM SCT110 11/09 A3006 RMK (JNC)

More Conditions Fewer Conditions

Pressure 30.06 in
Visibility 10.0 miles
Clouds Scattered Clouds 11000 ft
Dew Point 55 °F
Humidity 100%
Rainfall 0.00 in
Snow Depth Not available.
UV 0 out of 12
Pollen Not available.
Air Quality Not available.
Flu Activity Sporadic
METAR PAPG 121355Z 00000KT 10SM SCT110 11/09 A3006 RMK (JNC)

More Conditions Fewer Conditions

10-Day Weather Forecast

Almanac

Astronomy

Jul. 12, 2014 Rise Set
Actual Time 4:18 AM AKDT 9:41 PM AKDT
Civil Twilight 3:17 AM AKDT 10:41 PM AKDT
Nautical Twilight 1:32 AM AKDT 12:27 AM AKDT
Astronomical Twilight Sun does not rise Sun does not rise
Moon 9:19 PM AKDT 5:08 AM AKDT
Length of Visible Light 19h 24m
Length of Day
17h 22m
Tomorrow will be 2m 44s shorter.
Full, 100% of the Moon is Illuminated
Today
Full
Jul 18
Last Quarter
Jul 26
New
Aug 3
First Quarter
Aug 10
Full

Today's Extremes

State Highs State Lows

Community

WunderPhotos

Upload Photos

1,732,839 photos uploaded!

WunderBlogs® & News

Nearby

Snow Depth

Station Depth Elevation
Long Lake 0 in 820 ft
Upper Tsaina River 0 in 1750 ft
Moraine 0 in 2100 ft
Grandview 0 in 1100 ft
Grouse Creek Divide 0 in 700 ft

Earthquake Activity

City Distance Mag. Time & Date
No recent earthquake activity has been reported nearby.
Minimum magnitude displayed is 2.5.

Coastal Water Temperatures

Place Temperature
No Stations Reporting

Nearby Weather Stations

Station Location Temp. Dew Point Humidity Wind Precip. Elev Updated Type
RAWS KAKE AK, Kake, AK 55 °F 55 °F 100% NNE  at  2 mph 0.01 in / hr 399 ft 4:55 AM AKDT MADIS
MARITIME , Kake, AK 54 °F - - South  at  2 mph 0.00 in / hr 22 ft 5:00 AM AKDT MADIS

Show More Stations Show Fewer Stations